createdAt,value
2023-04-11T00:01:04.925Z,12.41
2023-04-11T00:03:33.103Z,12.40
2023-04-11T00:06:01.109Z,13.58
2023-04-11T00:08:28.993Z,14.57
2023-04-11T00:10:56.803Z,14.40
2023-04-11T00:13:26.590Z,13.36
2023-04-11T00:15:55.905Z,12.55
2023-04-11T00:18:25.595Z,12.41
2023-04-11T00:20:53.480Z,13.54
2023-04-11T00:23:21.329Z,14.20
2023-04-11T00:25:49.211Z,13.39
2023-04-11T00:28:17.024Z,12.54
2023-04-11T00:30:44.903Z,12.14
2023-04-11T00:33:12.650Z,13.08
2023-04-11T00:35:40.874Z,14.16
2023-04-11T00:38:08.711Z,14.45
2023-04-11T00:40:36.574Z,13.48
2023-04-11T00:43:04.375Z,12.59
2023-04-11T00:45:32.737Z,12.31
2023-04-11T00:48:01.542Z,13.36
2023-04-11T00:50:29.547Z,14.32
2023-04-11T00:52:58.104Z,13.88
2023-04-11T00:55:27.262Z,12.90
2023-04-11T00:57:55.706Z,12.26
2023-04-11T01:00:24.180Z,13.00
2023-04-11T01:02:52.655Z,14.05
2023-04-11T01:05:21.077Z,14.36
2023-04-11T01:07:51.416Z,13.37
2023-04-11T01:10:19.498Z,12.50
2023-04-11T01:12:47.388Z,12.79
2023-04-11T01:15:15.608Z,13.82
2023-04-11T01:17:43.558Z,14.23
2023-04-11T01:20:12.999Z,13.29
2023-04-11T01:22:41.848Z,12.38
2023-04-11T01:25:09.930Z,12.14
2023-04-11T01:27:38.052Z,13.20
2023-04-11T01:30:07.050Z,13.75
2023-04-11T01:32:35.297Z,12.87
2023-04-11T01:35:04.459Z,12.01
2023-04-11T01:37:32.209Z,11.72
2023-04-11T01:40:00.642Z,12.71
2023-04-11T01:42:30.142Z,13.62
2023-04-11T01:44:58.264Z,13.29
2023-04-11T01:47:26.121Z,12.29
2023-04-11T01:49:54.168Z,11.55
2023-04-11T01:52:22.012Z,11.86
2023-04-11T01:54:49.842Z,12.99
2023-04-11T01:57:17.605Z,13.83
2023-04-11T01:59:45.497Z,13.31
2023-04-11T02:02:13.398Z,12.31
2023-04-11T02:04:41.278Z,11.86
2023-04-11T02:07:09.093Z,12.81
2023-04-11T02:09:37.260Z,13.75
2023-04-11T02:12:05.705Z,13.82
2023-04-11T02:14:44.804Z,12.78
2023-04-11T02:17:13.352Z,11.83
2023-04-11T02:19:41.582Z,11.62
2023-04-11T02:22:09.470Z,12.69
2023-04-11T02:24:37.863Z,13.65
2023-04-11T02:27:06.179Z,13.28
2023-04-11T02:29:34.357Z,12.27
2023-04-11T02:32:02.327Z,11.86
2023-04-11T02:34:30.906Z,12.85
2023-04-11T02:36:58.796Z,13.77
2023-04-11T02:39:26.819Z,13.71
2023-04-11T02:41:54.785Z,12.68
2023-04-11T02:44:22.759Z,11.94
2023-04-11T02:46:50.546Z,12.56
2023-04-11T02:49:18.472Z,13.55
2023-04-11T02:51:46.308Z,13.71
2023-04-11T02:54:14.109Z,12.69
2023-04-11T02:56:43.402Z,12.20
2023-04-11T02:59:11.219Z,13.11
2023-04-11T03:01:39.346Z,14.10
2023-04-11T03:04:07.388Z,13.90
2023-04-11T03:06:36.051Z,12.79
2023-04-11T03:09:04.153Z,12.10
2023-04-11T03:11:32.100Z,12.90
2023-04-11T03:14:00.176Z,14.05
2023-04-11T03:16:28.319Z,14.86
2023-04-11T03:18:56.436Z,14.26
2023-04-11T03:21:24.951Z,13.15
2023-04-11T03:23:53.229Z,13.15
2023-04-11T03:26:21.862Z,14.29
2023-04-11T03:28:49.645Z,15.12
2023-04-11T03:31:17.832Z,14.45
2023-04-11T03:33:46.469Z,13.37
2023-04-11T03:36:14.383Z,13.12
2023-04-11T03:38:42.229Z,14.25
2023-04-11T03:41:10.096Z,15.17
2023-04-11T03:43:37.952Z,14.67
2023-04-11T03:46:05.915Z,13.60
2023-04-11T03:48:33.799Z,13.19
2023-04-11T03:51:01.650Z,14.19
2023-04-11T03:53:29.656Z,15.23
2023-04-11T03:55:57.584Z,14.83
2023-04-11T03:58:25.427Z,13.74
2023-04-11T04:00:53.217Z,13.08
2023-04-11T04:03:21.162Z,13.82
2023-04-11T04:05:49.029Z,14.94
2023-04-11T04:08:16.842Z,14.55
2023-04-11T04:10:45.029Z,13.56
2023-04-11T04:13:13.032Z,13.11
2023-04-11T04:15:40.839Z,14.13
2023-04-11T04:18:08.766Z,15.00
2023-04-11T04:20:36.609Z,14.26
2023-04-11T04:23:07.140Z,13.28
2023-04-11T04:25:35.173Z,13.34
2023-04-11T04:28:03.374Z,14.55
2023-04-11T04:30:31.187Z,14.96
2023-04-11T04:33:00.039Z,13.99
2023-04-11T04:35:28.181Z,13.16
2023-04-11T04:37:56.174Z,13.76
2023-04-11T04:40:24.031Z,14.90
2023-04-11T04:42:58.642Z,14.66
2023-04-11T04:45:26.757Z,13.61
2023-04-11T04:47:54.693Z,13.13
2023-04-11T04:50:22.653Z,14.17
2023-04-11T04:52:50.692Z,15.23
2023-04-11T04:55:18.481Z,14.76
2023-04-11T04:57:46.240Z,13.76
2023-04-11T05:00:15.286Z,13.33
2023-04-11T05:02:43.041Z,14.42
2023-04-11T05:05:12.409Z,15.06
2023-04-11T05:07:40.924Z,14.19
2023-04-11T05:10:09.440Z,13.37
2023-04-11T05:12:37.456Z,13.74
2023-04-11T05:15:11.361Z,14.80
2023-04-11T05:17:39.272Z,14.85
2023-04-11T05:20:09.098Z,13.89
2023-04-11T05:22:38.111Z,13.48
2023-04-11T05:25:09.046Z,14.42
2023-04-11T05:27:36.915Z,15.28
2023-04-11T05:30:06.021Z,14.71
2023-04-11T05:32:34.027Z,13.76
2023-04-11T05:35:02.166Z,13.47
2023-04-11T05:37:31.306Z,14.54
2023-04-11T05:40:00.252Z,15.42
2023-04-11T05:42:28.172Z,14.87
2023-04-11T05:44:56.157Z,13.98
2023-04-11T05:47:24.008Z,13.40
2023-04-11T05:49:51.885Z,14.07
2023-04-11T05:52:19.673Z,15.29
2023-04-11T05:54:47.546Z,15.65
2023-04-11T05:57:15.318Z,14.73
2023-04-11T05:59:43.134Z,13.88
2023-04-11T06:02:11.062Z,13.74
2023-04-11T06:04:39.258Z,14.91
2023-04-11T06:07:08.590Z,15.56
2023-04-11T06:09:36.844Z,14.74
2023-04-11T06:12:04.960Z,13.95
2023-04-11T06:14:32.983Z,13.88
2023-04-11T06:17:00.803Z,15.09
2023-04-11T06:19:28.563Z,15.83
2023-04-11T06:21:56.545Z,15.07
2023-04-11T06:24:38.560Z,14.29
2023-04-11T06:27:09.923Z,14.22
2023-04-11T06:29:38.880Z,15.49
2023-04-11T06:32:07.863Z,15.87
2023-04-11T06:34:35.758Z,14.99
2023-04-11T06:37:03.651Z,14.29
2023-04-11T06:39:31.620Z,13.88
2023-04-11T06:41:59.394Z,14.74
2023-04-11T06:44:27.369Z,15.90
2023-04-11T06:46:55.552Z,15.43
2023-04-11T06:49:23.421Z,14.61
2023-04-11T06:51:51.773Z,14.01
2023-04-11T06:54:19.648Z,14.46
2023-04-11T06:56:47.724Z,15.69
2023-04-11T06:59:15.827Z,15.44
2023-04-11T07:01:43.725Z,14.61
2023-04-11T07:04:11.731Z,14.04
2023-04-11T07:06:39.714Z,14.10
2023-04-11T07:09:09.685Z,15.36
2023-04-11T07:11:38.652Z,15.95
2023-04-11T07:14:06.923Z,15.13
2023-04-11T07:16:34.907Z,14.44
2023-04-11T07:19:03.686Z,13.97
2023-04-11T07:21:32.536Z,14.08
2023-04-11T07:24:08.265Z,15.31
2023-04-11T07:27:03.875Z,15.31
2023-04-11T07:29:35.195Z,14.51
2023-04-11T07:32:03.102Z,14.00
2023-04-11T07:34:30.806Z,14.12
2023-04-11T07:37:01.090Z,15.41
2023-04-11T07:39:29.235Z,15.46
2023-04-11T07:41:57.239Z,14.75
2023-04-11T07:44:27.160Z,14.22
2023-04-11T07:46:55.409Z,13.85
2023-04-11T07:49:23.404Z,14.12
2023-04-11T07:51:54.906Z,15.49
2023-04-11T07:54:25.336Z,15.73
2023-04-11T07:56:53.193Z,14.95
2023-04-11T07:59:20.966Z,14.39
2023-04-11T08:01:48.991Z,13.97
2023-04-11T08:04:16.956Z,14.19
2023-04-11T08:06:45.181Z,15.55
2023-04-11T08:09:13.766Z,16.25
2023-04-11T08:11:41.701Z,15.49
2023-04-11T08:14:09.516Z,14.80
2023-04-11T08:16:37.513Z,14.34
2023-04-11T08:19:05.364Z,14.01
2023-04-11T08:21:33.542Z,13.87
2023-04-11T08:24:01.502Z,14.98
2023-04-11T08:26:29.548Z,15.80
2023-04-11T08:28:57.985Z,15.19
2023-04-11T08:31:26.941Z,14.62
2023-04-11T08:33:56.179Z,14.26
2023-04-11T08:36:25.803Z,14.01
2023-04-11T08:38:55.360Z,14.47
2023-04-11T08:41:23.497Z,15.90
2023-04-11T08:43:51.411Z,15.99
2023-04-11T08:46:25.804Z,15.31
2023-04-11T08:48:53.784Z,14.79
2023-04-11T08:51:28.981Z,14.48
2023-04-11T08:53:59.697Z,14.28
2023-04-11T08:56:27.965Z,14.17
2023-04-11T08:58:55.769Z,15.13
2023-04-11T09:01:34.322Z,16.51
2023-04-11T09:04:07.519Z,16.31
2023-04-11T09:06:35.576Z,15.63
2023-04-11T09:09:05.684Z,15.18
2023-04-11T09:11:54.645Z,14.91
2023-04-11T09:14:26.989Z,14.71
2023-04-11T09:17:00.238Z,14.58
2023-04-11T09:19:32.181Z,14.49
2023-04-11T09:22:05.906Z,14.43
2023-04-11T09:24:35.601Z,14.71
2023-04-11T09:27:19.634Z,16.20
2023-04-11T09:29:48.828Z,16.45
2023-04-11T09:32:33.980Z,15.89
2023-04-11T09:35:07.971Z,15.45
2023-04-11T09:37:59.323Z,15.19
2023-04-11T09:40:33.450Z,15.02
2023-04-11T09:43:04.260Z,14.90
2023-04-11T09:45:38.324Z,14.81
2023-04-11T09:48:10.519Z,14.80
2023-04-11T09:50:38.733Z,14.79
2023-04-11T09:53:07.023Z,14.82
2023-04-11T09:55:35.114Z,14.87
2023-04-11T09:58:05.909Z,14.93
2023-04-11T10:00:34.060Z,14.99
2023-04-11T10:03:02.426Z,15.04
2023-04-11T10:05:31.797Z,15.09
2023-04-11T10:08:22.915Z,15.11
2023-04-11T10:10:53.024Z,15.13
2023-04-11T10:13:44.613Z,15.12
2023-04-11T10:16:18.840Z,15.11
2023-04-11T10:18:56.419Z,15.10
2023-04-11T10:21:30.292Z,15.09
2023-04-11T10:24:18.253Z,15.08
2023-04-11T10:26:55.335Z,15.07
2023-04-11T10:29:29.602Z,15.07
2023-04-11T10:32:24.093Z,15.06
2023-04-11T10:34:54.768Z,15.06
2023-04-11T10:37:36.119Z,15.05
2023-04-11T10:40:11.360Z,15.03
2023-04-11T10:42:44.862Z,15.00
2023-04-11T10:45:30.008Z,14.96
2023-04-11T10:48:07.707Z,14.90
2023-04-11T10:50:40.663Z,14.84
2023-04-11T10:53:14.357Z,14.78
2023-04-11T10:55:46.240Z,14.72
2023-04-11T10:58:22.659Z,14.62
2023-04-11T11:00:54.148Z,14.50
2023-04-11T11:03:32.458Z,14.34
2023-04-11T11:06:08.906Z,14.14
2023-04-11T11:08:42.725Z,13.97
2023-04-11T11:11:11.889Z,13.93
2023-04-11T11:13:55.931Z,15.11
2023-04-11T11:16:26.470Z,16.05
2023-04-11T11:18:56.691Z,15.38
2023-04-11T11:21:28.414Z,14.75
2023-04-11T11:23:59.659Z,14.31
2023-04-11T11:26:41.621Z,13.99
2023-04-11T11:29:10.718Z,14.52
2023-04-11T11:31:40.087Z,15.54
2023-04-11T11:34:23.059Z,15.06
2023-04-11T11:36:52.938Z,14.40
2023-04-11T11:39:22.866Z,13.95
2023-04-11T11:41:52.287Z,14.03
2023-04-11T11:44:28.264Z,15.39
2023-04-11T11:47:15.016Z,15.69
2023-04-11T11:49:56.891Z,14.82
2023-04-11T11:52:42.516Z,14.17
2023-04-11T11:55:19.445Z,13.88
2023-04-11T11:57:48.975Z,15.06
2023-04-11T12:00:28.385Z,15.87
2023-04-11T12:02:59.404Z,15.11
2023-04-11T12:05:33.203Z,14.39
2023-04-11T12:08:07.359Z,14.19
2023-04-11T12:10:39.506Z,15.42
2023-04-11T12:13:21.276Z,16.16
2023-04-11T12:15:55.709Z,15.29
2023-04-11T12:18:26.419Z,14.56
2023-04-11T12:20:55.609Z,15.08
2023-04-11T12:23:23.623Z,16.31
2023-04-11T12:25:51.413Z,16.77
2023-04-11T12:28:19.225Z,15.85
2023-04-11T12:30:47.040Z,15.03
2023-04-11T12:33:14.922Z,15.58
2023-04-11T12:35:42.834Z,16.73
2023-04-11T12:38:11.949Z,16.69
2023-04-11T12:40:42.758Z,15.64
2023-04-11T12:43:10.530Z,15.20
2023-04-11T12:45:38.302Z,16.23
2023-04-11T12:48:06.539Z,17.01
2023-04-11T12:50:34.300Z,16.19
2023-04-11T12:53:02.060Z,15.22
2023-04-11T12:55:30.334Z,15.40
2023-04-11T12:57:58.150Z,16.44
2023-04-11T13:00:26.008Z,16.07
2023-04-11T13:02:54.656Z,15.06
2023-04-11T13:05:22.696Z,14.64
2023-04-11T13:07:50.732Z,15.67
2023-04-11T13:10:18.732Z,16.45
2023-04-11T13:12:48.028Z,15.66
2023-04-11T13:15:17.145Z,14.70
2023-04-11T13:17:45.723Z,14.84
2023-04-11T13:20:14.344Z,16.02
2023-04-11T13:22:43.462Z,16.27
2023-04-11T13:25:12.418Z,15.26
2023-04-11T13:27:41.758Z,14.55
2023-04-11T13:30:10.740Z,15.37
2023-04-11T13:32:38.720Z,16.05
2023-04-11T13:35:07.587Z,15.21
2023-04-11T13:37:35.536Z,14.69
2023-04-11T13:40:06.795Z,15.64
2023-04-11T13:42:35.298Z,16.24
2023-04-11T13:45:04.593Z,15.37
2023-04-11T13:47:32.455Z,14.50
2023-04-11T13:50:00.430Z,14.43
2023-04-11T13:52:28.444Z,15.61
2023-04-11T13:54:56.758Z,16.18
2023-04-11T13:57:24.667Z,15.29
2023-04-11T13:59:52.780Z,14.49
2023-04-11T14:02:20.894Z,15.02
2023-04-11T14:04:49.505Z,16.22
2023-04-11T14:07:17.733Z,16.28
2023-04-11T14:09:45.978Z,15.28
2023-04-11T14:12:14.058Z,14.46
2023-04-11T14:14:42.240Z,14.30
2023-04-11T14:17:10.757Z,15.49
2023-04-11T14:19:39.085Z,16.54
2023-04-11T14:22:07.148Z,16.21
2023-04-11T14:24:35.137Z,15.20
2023-04-11T14:27:03.223Z,14.47
2023-04-11T14:29:31.247Z,14.89
2023-04-11T14:31:59.127Z,16.13
2023-04-11T14:34:28.267Z,16.66
2023-04-11T14:36:56.203Z,15.72
2023-04-11T14:39:24.700Z,14.83
2023-04-11T14:41:53.630Z,14.92
2023-04-11T14:44:21.562Z,16.19
2023-04-11T14:46:49.547Z,16.77
2023-04-11T14:49:17.495Z,15.90
2023-04-11T14:51:45.882Z,14.97
2023-04-11T14:54:13.955Z,14.98
2023-04-11T14:56:42.213Z,16.24
2023-04-11T14:59:11.486Z,16.70
2023-04-11T15:01:39.588Z,15.72
2023-04-11T15:04:07.689Z,14.85
2023-04-11T15:06:35.589Z,14.75
2023-04-11T15:09:04.752Z,15.98
2023-04-11T15:11:32.768Z,16.90
2023-04-11T15:14:00.921Z,16.23
2023-04-11T15:16:28.770Z,15.21
2023-04-11T15:18:57.150Z,14.96
2023-04-11T15:21:25.016Z,16.12
2023-04-11T15:23:52.871Z,16.78
2023-04-11T15:26:21.493Z,15.92
2023-04-11T15:28:49.305Z,15.02
2023-04-11T15:31:26.782Z,15.30
2023-04-11T15:33:57.270Z,16.58
2023-04-11T15:36:25.353Z,16.97
2023-04-11T15:38:53.209Z,15.98
2023-04-11T15:41:21.290Z,15.04
2023-04-11T15:43:49.178Z,14.60
2023-04-11T15:46:17.417Z,15.60
2023-04-11T15:48:45.764Z,15.98
2023-04-11T15:51:14.311Z,15.10
2023-04-11T15:53:42.612Z,14.34
2023-04-11T15:56:11.493Z,13.78
2023-04-11T15:58:39.372Z,13.90
2023-04-11T16:01:07.304Z,15.26
2023-04-11T16:03:35.902Z,16.33
2023-04-11T16:06:05.852Z,15.92
2023-04-11T16:08:33.678Z,14.92
2023-04-11T16:11:01.545Z,14.51
2023-04-11T16:13:29.514Z,15.59
2023-04-11T16:15:57.402Z,16.59
2023-04-11T16:18:25.710Z,16.03
2023-04-11T16:20:53.590Z,15.09
2023-04-11T16:23:22.086Z,14.39
2023-04-11T16:25:50.046Z,13.88
2023-04-11T16:28:18.211Z,13.48
2023-04-11T16:30:48.501Z,13.20
2023-04-11T16:33:16.362Z,14.07
2023-04-11T16:35:44.451Z,15.47
2023-04-11T16:38:12.863Z,15.51
2023-04-11T16:40:41.080Z,14.58
2023-04-11T16:43:08.984Z,13.84
2023-04-11T16:45:36.798Z,13.34
2023-04-11T16:48:05.972Z,13.93
2023-04-11T16:50:33.959Z,15.22
2023-04-11T16:53:01.916Z,14.96
2023-04-11T16:55:29.830Z,14.08
2023-04-11T16:57:57.666Z,13.43
2023-04-11T17:00:26.065Z,13.90
2023-04-11T17:02:54.100Z,15.23
2023-04-11T17:05:23.995Z,15.40
2023-04-11T17:07:52.016Z,14.42
2023-04-11T17:10:21.128Z,13.77
2023-04-11T17:12:49.234Z,14.59
2023-04-11T17:15:17.333Z,15.70
2023-04-11T17:17:45.405Z,15.27
2023-04-11T17:20:14.744Z,14.29
2023-04-11T17:22:44.415Z,13.92
2023-04-11T17:25:12.402Z,15.03
2023-04-11T17:27:41.187Z,15.59
2023-04-11T17:30:09.867Z,14.65
2023-04-11T17:32:38.772Z,13.77
2023-04-11T17:35:07.261Z,13.44
2023-04-11T17:37:36.078Z,14.56
2023-04-11T17:40:10.885Z,15.07
2023-04-11T17:42:39.186Z,14.16
2023-04-11T17:45:17.830Z,13.35
2023-04-11T17:47:49.820Z,12.83
2023-04-11T17:50:17.893Z,13.74
2023-04-11T17:52:48.406Z,14.98
2023-04-11T17:55:18.164Z,15.19
2023-04-11T17:57:50.275Z,14.18
2023-04-11T18:00:24.309Z,13.32
2023-04-11T18:02:54.913Z,13.68
2023-04-11T18:05:26.425Z,14.97
2023-04-11T18:08:00.432Z,15.25
2023-04-11T18:10:29.283Z,14.19
2023-04-11T18:12:58.566Z,13.33
2023-04-11T18:15:27.832Z,13.58
2023-04-11T18:17:55.956Z,14.84
2023-04-11T18:20:23.956Z,15.40
2023-04-11T18:22:56.344Z,14.43
2023-04-11T18:25:24.469Z,13.51
2023-04-11T18:27:52.259Z,13.52
2023-04-11T18:30:20.192Z,14.76
2023-04-11T18:32:50.620Z,15.44
2023-04-11T18:35:19.303Z,14.51
2023-04-11T18:37:47.538Z,13.55
2023-04-11T18:40:15.987Z,13.33
2023-04-11T18:42:50.609Z,14.47
2023-04-11T18:45:21.869Z,15.08
2023-04-11T18:47:50.227Z,14.19
2023-04-11T18:50:19.080Z,13.28
2023-04-11T18:52:51.485Z,13.01
2023-04-11T18:55:21.879Z,14.18
2023-04-11T18:57:52.536Z,14.80
2023-04-11T19:00:22.127Z,13.87
2023-04-11T19:02:51.100Z,13.03
2023-04-11T19:05:19.597Z,13.49
2023-04-11T19:07:47.593Z,14.64
2023-04-11T19:10:15.854Z,14.51
2023-04-11T19:12:43.849Z,13.50
2023-04-11T19:15:12.705Z,12.80
2023-04-11T19:17:40.818Z,13.48
2023-04-11T19:20:16.578Z,14.55
2023-04-11T19:22:46.256Z,14.19
2023-04-11T19:25:14.781Z,13.18
2023-04-11T19:27:46.216Z,12.48
2023-04-11T19:30:14.238Z,13.09
2023-04-11T19:32:43.598Z,14.26
2023-04-11T19:35:12.602Z,14.06
2023-04-11T19:37:41.042Z,13.08
2023-04-11T19:40:15.890Z,12.35
2023-04-11T19:42:45.103Z,13.01
2023-04-11T19:45:13.128Z,14.19
2023-04-11T19:47:41.846Z,13.92
2023-04-11T19:50:15.158Z,12.92
2023-04-11T19:52:43.373Z,12.19
2023-04-11T19:55:12.611Z,12.85
2023-04-11T19:57:43.767Z,14.03
2023-04-11T20:00:13.957Z,13.68
2023-04-11T20:02:44.869Z,12.70
2023-04-11T20:05:18.474Z,12.09
2023-04-11T20:07:47.027Z,12.96
2023-04-11T20:10:16.199Z,13.96
2023-04-11T20:12:44.164Z,13.40
2023-04-11T20:15:12.187Z,12.45
2023-04-11T20:17:40.234Z,12.51
2023-04-11T20:20:09.016Z,13.66
2023-04-11T20:22:40.394Z,14.13
2023-04-11T20:25:11.663Z,13.13
2023-04-11T20:27:42.074Z,12.27
2023-04-11T20:30:10.752Z,12.83
2023-04-11T20:32:40.477Z,13.93
2023-04-11T20:35:10.245Z,13.58
2023-04-11T20:37:40.179Z,12.53
2023-04-11T20:40:10.329Z,12.19
2023-04-11T20:42:40.194Z,13.31
2023-04-11T20:45:16.444Z,13.95
2023-04-11T20:47:46.387Z,12.97
2023-04-11T20:50:15.919Z,12.09
2023-04-11T20:52:46.760Z,12.49
2023-04-11T20:55:15.655Z,13.63
2023-04-11T20:57:44.801Z,13.88
2023-04-11T21:00:16.913Z,12.86
2023-04-11T21:02:49.853Z,12.07
2023-04-11T21:05:25.253Z,12.77
2023-04-11T21:07:54.531Z,13.94
2023-04-11T21:10:22.746Z,13.68
2023-04-11T21:12:54.373Z,12.60
2023-04-11T21:15:22.612Z,12.02
2023-04-11T21:17:50.808Z,12.96
2023-04-11T21:20:19.677Z,13.89
2023-04-11T21:22:49.704Z,13.27
2023-04-11T21:25:17.650Z,12.24
2023-04-11T21:27:46.827Z,11.93
2023-04-11T21:30:15.020Z,13.02
2023-04-11T21:32:43.058Z,13.64
2023-04-11T21:35:11.860Z,12.77
2023-04-11T21:37:39.876Z,12.01
2023-04-11T21:40:08.422Z,12.76
2023-04-11T21:42:36.429Z,13.83
2023-04-11T21:45:04.808Z,13.46
2023-04-11T21:47:32.643Z,12.39
2023-04-11T21:50:01.033Z,12.15
2023-04-11T21:52:28.911Z,13.25
2023-04-11T21:54:56.771Z,13.72
2023-04-11T21:57:24.550Z,12.75
2023-04-11T21:59:52.376Z,11.91
2023-04-11T22:02:20.328Z,12.44
2023-04-11T22:05:03.965Z,13.54
2023-04-11T22:07:38.414Z,13.34
2023-04-11T22:10:09.613Z,12.24
2023-04-11T22:12:38.463Z,11.90
2023-04-11T22:15:07.779Z,13.05
2023-04-11T22:17:37.235Z,13.63
2023-04-11T22:20:06.889Z,12.67
2023-04-11T22:22:35.367Z,11.88
2023-04-11T22:25:03.358Z,12.67
2023-04-11T22:27:34.472Z,13.59
2023-04-11T22:30:02.630Z,12.99
2023-04-11T22:32:30.642Z,11.97
2023-04-11T22:34:59.903Z,11.79
2023-04-11T22:37:27.939Z,12.99
2023-04-11T22:39:56.258Z,13.57
2023-04-11T22:42:24.960Z,12.65
2023-04-11T22:44:52.897Z,11.74
2023-04-11T22:47:21.847Z,12.06
2023-04-11T22:49:50.304Z,13.30
2023-04-11T22:52:24.318Z,13.67
2023-04-11T22:54:52.321Z,12.64
2023-04-11T22:57:20.543Z,11.79
2023-04-11T22:59:48.488Z,12.34
2023-04-11T23:02:16.494Z,13.53
2023-04-11T23:04:45.117Z,13.52
2023-04-11T23:07:13.007Z,12.45
2023-04-11T23:09:40.785Z,11.59
2023-04-11T23:12:08.831Z,11.48
2023-04-11T23:14:36.636Z,12.69
2023-04-11T23:17:04.540Z,13.37
2023-04-11T23:19:32.391Z,12.49
2023-04-11T23:22:00.293Z,11.55
2023-04-11T23:24:29.056Z,11.39
2023-04-11T23:26:57.131Z,12.55
2023-04-11T23:29:25.164Z,13.18
2023-04-11T23:31:53.060Z,12.29
2023-04-11T23:34:21.057Z,11.34
2023-04-11T23:36:48.899Z,11.20
2023-04-11T23:39:16.766Z,12.38
2023-04-11T23:41:44.972Z,12.94
2023-04-11T23:44:14.457Z,12.04
2023-04-11T23:46:42.349Z,11.09
2023-04-11T23:49:10.266Z,11.01
2023-04-11T23:51:38.236Z,12.20
2023-04-11T23:54:07.328Z,12.51
2023-04-11T23:56:35.192Z,11.49
2023-04-11T23:59:03.428Z,10.83
